Time;durP1;ratioP1;P1;durP2;ratioP2;P2;SDS_P1;SDS_P2;PMS_P1;PMS_P2;Temp;Humidity;BMP_temperature;BMP_pressure;BME280_temperature;BME280_humidity;BME280_pressure;Samples;Min_cycle;Max_cycle;Signal;HPM_P1;HPM_P2
2022/07/07 00:02:15;;;;;;;;;;;17.60;99.90;;;;;;4957980;29;19958;-78
2022/07/07 00:04:41;;;;;;;;;;;17.70;99.90;;;;;;4958111;29;19925;-77
2022/07/07 00:07:07;;;;;;;;;;;17.70;99.90;;;;;;4958119;28;20368;-77
2022/07/07 00:09:32;;;;;;;;;;;17.80;99.90;;;;;;4958577;28;19911;-77
2022/07/07 00:11:58;;;;;;;;;;;17.60;99.90;;;;;;4958147;28;19910;-77
2022/07/07 00:14:24;;;;;;;;;;;17.60;99.90;;;;;;4958029;28;19917;-78
2022/07/07 00:16:50;;;;;;;;;;;17.60;99.90;;;;;;4957777;29;19917;-77
2022/07/07 00:19:15;;;;;;;;;;;17.60;99.90;;;;;;4957799;28;19917;-77
2022/07/07 00:21:41;;;;;;;;;;;17.70;99.90;;;;;;4957728;28;20327;-77
2022/07/07 00:24:07;;;;;;;;;;;17.70;99.90;;;;;;4957859;28;19914;-77
2022/07/07 00:26:33;;;;;;;;;;;17.70;99.90;;;;;;4957864;28;20066;-77
2022/07/07 00:28:58;;;;;;;;;;;17.60;99.90;;;;;;4957849;29;19910;-78
2022/07/07 00:31:24;;;;;;;;;;;17.60;99.90;;;;;;4957469;28;20260;-77
2022/07/07 00:33:50;;;;;;;;;;;17.60;99.90;;;;;;4957400;28;19911;-78
2022/07/07 00:36:16;;;;;;;;;;;17.50;99.90;;;;;;4957452;28;19911;-78
2022/07/07 00:38:41;;;;;;;;;;;17.50;99.90;;;;;;4957410;28;20371;-78
2022/07/07 00:41:07;;;;;;;;;;;17.50;99.90;;;;;;4957426;28;20299;-76
2022/07/07 00:43:36;;;;;;;;;;;17.50;99.90;;;;;;4957351;29;19915;-78
2022/07/07 00:46:03;;;;;;;;;;;17.40;99.90;;;;;;4957563;29;20372;-77
2022/07/07 00:48:28;;;;;;;;;;;17.40;99.90;;;;;;4957454;29;19910;-78
2022/07/07 00:50:54;;;;;;;;;;;17.40;99.90;;;;;;4956953;28;20014;-78
2022/07/07 00:53:20;;;;;;;;;;;17.50;99.90;;;;;;4957203;29;19915;-78
2022/07/07 00:55:45;;;;;;;;;;;17.30;99.90;;;;;;4957176;29;19942;-77
2022/07/07 00:58:11;;;;;;;;;;;17.30;99.90;;;;;;4957024;29;20371;-78
2022/07/07 01:00:36;;;;;;;;;;;17.20;99.90;;;;;;4956870;28;19937;-77
2022/07/07 01:03:02;;;;;;;;;;;17.20;99.90;;;;;;4956899;28;19915;-78
2022/07/07 01:05:30;;;;;;;;;;;17.10;99.90;;;;;;4956833;29;19911;-78
2022/07/07 01:07:55;;;;;;;;;;;17.10;99.90;;;;;;4956847;29;19910;-77
2022/07/07 01:10:21;;;;;;;;;;;17.10;99.90;;;;;;4957632;29;19926;-78
2022/07/07 01:12:46;;;;;;;;;;;17.00;99.90;;;;;;4956834;29;19918;-77
2022/07/07 01:15:13;;;;;;;;;;;17.00;99.90;;;;;;4956884;28;19911;-78
2022/07/07 01:17:39;;;;;;;;;;;17.00;99.90;;;;;;4939451;29;19911;-78
2022/07/07 01:20:06;;;;;;;;;;;17.10;99.90;;;;;;4957216;29;19932;-76
2022/07/07 01:22:33;;;;;;;;;;;17.00;99.90;;;;;;4956681;29;19911;-78
2022/07/07 01:24:59;;;;;;;;;;;16.90;99.90;;;;;;4956682;29;19914;-78
2022/07/07 01:27:25;;;;;;;;;;;17.10;99.90;;;;;;4956602;29;19918;-78
2022/07/07 01:29:52;;;;;;;;;;;17.00;99.90;;;;;;4956467;29;20001;-78
2022/07/07 01:32:18;;;;;;;;;;;17.00;99.90;;;;;;4956441;29;19910;-78
2022/07/07 01:34:46;;;;;;;;;;;17.10;99.90;;;;;;4956656;29;19946;-77
2022/07/07 01:37:11;;;;;;;;;;;17.00;99.90;;;;;;4956317;29;19952;-77
2022/07/07 01:39:37;;;;;;;;;;;17.00;99.90;;;;;;4956281;29;19950;-78
2022/07/07 01:42:04;;;;;;;;;;;17.00;99.90;;;;;;4956214;29;19911;-78
2022/07/07 01:44:30;;;;;;;;;;;17.00;99.90;;;;;;4956252;29;20013;-78
2022/07/07 01:46:55;;;;;;;;;;;16.90;99.90;;;;;;4938860;29;20375;-77
2022/07/07 01:49:21;;;;;;;;;;;16.80;99.90;;;;;;4955503;28;19910;-77
2022/07/07 01:51:46;;;;;;;;;;;16.70;99.90;;;;;;4955903;28;20362;-78
2022/07/07 01:54:12;;;;;;;;;;;16.80;99.90;;;;;;4956294;28;19921;-78
2022/07/07 01:56:37;;;;;;;;;;;16.80;99.90;;;;;;4956222;29;19910;-75
2022/07/07 01:59:03;;;;;;;;;;;16.80;99.90;;;;;;4956037;28;20286;-77
2022/07/07 02:01:29;;;;;;;;;;;16.80;99.90;;;;;;4956057;28;19961;-78
2022/07/07 02:03:55;;;;;;;;;;;16.60;99.90;;;;;;4955879;28;19914;-78
2022/07/07 02:06:20;;;;;;;;;;;16.60;99.90;;;;;;4955917;28;19910;-78
2022/07/07 02:08:46;;;;;;;;;;;16.60;99.90;;;;;;4956681;29;19966;-78
2022/07/07 02:11:14;;;;;;;;;;;16.50;99.90;;;;;;4955831;28;20359;-78
2022/07/07 02:13:47;;;;;;;;;;;16.60;99.90;;;;;;4955675;28;19993;-77
2022/07/07 02:16:13;;;;;;;;;;;16.60;99.90;;;;;;4955851;28;20291;-77
2022/07/07 02:18:40;;;;;;;;;;;16.70;99.90;;;;;;4955583;29;19911;-78
2022/07/07 02:21:06;;;;;;;;;;;16.70;99.90;;;;;;4955683;29;19911;-78
2022/07/07 02:23:32;;;;;;;;;;;16.60;99.90;;;;;;4955617;29;19918;-77
2022/07/07 02:25:58;;;;;;;;;;;16.60;99.90;;;;;;4955654;29;19911;-78
2022/07/07 02:28:24;;;;;;;;;;;16.40;99.90;;;;;;4956047;29;20418;-78
2022/07/07 02:30:52;;;;;;;;;;;16.40;99.90;;;;;;4955661;29;20318;-77
2022/07/07 02:33:18;;;;;;;;;;;16.50;99.90;;;;;;4955573;29;19910;-77
2022/07/07 02:35:43;;;;;;;;;;;16.50;99.90;;;;;;4955545;29;19910;-77
2022/07/07 02:38:09;;;;;;;;;;;16.50;99.90;;;;;;4955678;28;19918;-78
2022/07/07 02:40:34;;;;;;;;;;;16.50;99.90;;;;;;4938238;29;19935;-78
2022/07/07 02:43:00;;;;;;;;;;;16.50;99.90;;;;;;4955556;29;19966;-77
2022/07/07 02:45:25;;;;;;;;;;;16.40;99.90;;;;;;4955575;28;20286;-77
2022/07/07 02:47:51;;;;;;;;;;;16.50;99.90;;;;;;4955393;29;19966;-78
2022/07/07 02:50:17;;;;;;;;;;;16.40;99.90;;;;;;4955312;28;19910;-77
2022/07/07 02:52:43;;;;;;;;;;;16.40;99.90;;;;;;4955536;29;19910;-78
2022/07/07 02:55:09;;;;;;;;;;;16.50;99.90;;;;;;4955472;29;20422;-77
2022/07/07 02:57:34;;;;;;;;;;;16.40;99.90;;;;;;4955397;29;19915;-77
2022/07/07 03:00:00;;;;;;;;;;;16.40;99.90;;;;;;4955343;28;19914;-77
2022/07/07 03:02:26;;;;;;;;;;;16.30;99.90;;;;;;4958710;29;20387;-77
2022/07/07 03:04:52;;;;;;;;;;;16.40;99.90;;;;;;4959053;29;20310;-77
2022/07/07 03:07:19;;;;;;;;;;;16.30;99.90;;;;;;4959427;29;19911;-78
2022/07/07 03:09:45;;;;;;;;;;;16.20;99.90;;;;;;4959579;29;19917;-78
2022/07/07 03:12:11;;;;;;;;;;;16.10;99.90;;;;;;4959044;29;20291;-78
2022/07/07 03:14:37;;;;;;;;;;;16.20;99.90;;;;;;4959156;28;19919;-78
2022/07/07 03:17:02;;;;;;;;;;;16.10;99.90;;;;;;4959175;28;20268;-78
2022/07/07 03:19:28;;;;;;;;;;;16.10;99.90;;;;;;4958880;28;19910;-77
2022/07/07 03:21:53;;;;;;;;;;;16.20;99.90;;;;;;4958937;28;19975;-76
2022/07/07 03:24:19;;;;;;;;;;;16.30;99.90;;;;;;4958891;28;20394;-77
2022/07/07 03:26:45;;;;;;;;;;;16.20;99.90;;;;;;4942248;29;19957;-77
2022/07/07 03:29:10;;;;;;;;;;;16.20;99.90;;;;;;4959683;28;19911;-78
2022/07/07 03:31:36;;;;;;;;;;;16.20;99.90;;;;;;4959664;28;20334;-77
2022/07/07 03:34:01;;;;;;;;;;;16.20;99.90;;;;;;4959486;28;19918;-77
2022/07/07 03:36:27;;;;;;;;;;;16.20;99.90;;;;;;4959331;28;19911;-78
2022/07/07 03:38:52;;;;;;;;;;;16.20;99.90;;;;;;4959769;29;19910;-77
2022/07/07 03:41:18;;;;;;;;;;;16.20;99.90;;;;;;4959077;29;20406;-77
2022/07/07 03:43:44;;;;;;;;;;;16.10;99.90;;;;;;4958500;28;19915;-78
2022/07/07 03:46:09;;;;;;;;;;;16.20;99.90;;;;;;4958809;28;19942;-78
2022/07/07 03:48:35;;;;;;;;;;;16.30;99.90;;;;;;4958329;29;19911;-78
2022/07/07 03:51:00;;;;;;;;;;;16.20;99.90;;;;;;4958168;28;19922;-78
2022/07/07 03:53:26;;;;;;;;;;;16.10;99.90;;;;;;4958327;29;19910;-77
2022/07/07 03:55:52;;;;;;;;;;;16.20;99.90;;;;;;4958523;29;20362;-78
2022/07/07 03:58:17;;;;;;;;;;;16.30;99.90;;;;;;4958419;28;20318;-77
2022/07/07 04:00:43;;;;;;;;;;;16.40;99.90;;;;;;4958171;28;19910;-78
2022/07/07 04:03:09;;;;;;;;;;;16.50;99.90;;;;;;4958161;28;19910;-77
2022/07/07 04:05:35;;;;;;;;;;;16.50;99.90;;;;;;4958132;28;19910;-78
2022/07/07 04:08:01;;;;;;;;;;;16.50;99.90;;;;;;4958237;28;20398;-78
2022/07/07 04:10:26;;;;;;;;;;;16.50;99.90;;;;;;4958552;28;20260;-77
2022/07/07 04:12:53;;;;;;;;;;;16.50;99.90;;;;;;4957693;28;19914;-78
2022/07/07 04:15:19;;;;;;;;;;;16.50;99.90;;;;;;4957962;28;19910;-78
2022/07/07 04:17:45;;;;;;;;;;;16.60;99.90;;;;;;4958365;28;19911;-77
2022/07/07 04:20:11;;;;;;;;;;;16.80;99.90;;;;;;4957635;28;19911;-78
2022/07/07 04:22:37;;;;;;;;;;;16.80;99.90;;;;;;4957798;29;19918;-78
2022/07/07 04:25:03;;;;;;;;;;;16.90;99.90;;;;;;4957783;29;19914;-76
2022/07/07 04:27:29;;;;;;;;;;;17.00;99.90;;;;;;4957707;29;19993;-78
2022/07/07 04:29:54;;;;;;;;;;;17.00;99.90;;;;;;4958081;29;20407;-77
2022/07/07 04:32:20;;;;;;;;;;;17.10;99.90;;;;;;4957643;29;19911;-77
2022/07/07 04:34:46;;;;;;;;;;;17.20;99.90;;;;;;4957819;29;19917;-76
2022/07/07 04:37:11;;;;;;;;;;;17.30;99.90;;;;;;4957536;28;19914;-78
2022/07/07 04:39:37;;;;;;;;;;;17.30;99.90;;;;;;4957439;29;19966;-78
2022/07/07 04:42:03;;;;;;;;;;;17.40;99.90;;;;;;4957458;28;19910;-78
2022/07/07 04:44:29;;;;;;;;;;;17.50;99.90;;;;;;4957273;29;20017;-78
2022/07/07 04:46:54;;;;;;;;;;;17.30;99.90;;;;;;4957346;28;19960;-78
2022/07/07 04:49:20;;;;;;;;;;;17.10;99.90;;;;;;4957316;28;20379;-77
2022/07/07 04:51:46;;;;;;;;;;;17.00;99.90;;;;;;4939798;29;19930;-78
2022/07/07 04:54:11;;;;;;;;;;;17.00;99.90;;;;;;4957456;28;19914;-78
2022/07/07 04:56:37;;;;;;;;;;;17.10;99.90;;;;;;4957233;28;19914;-78
2022/07/07 04:59:02;;;;;;;;;;;17.30;99.90;;;;;;4957154;28;19910;-77
2022/07/07 05:01:28;;;;;;;;;;;17.40;99.90;;;;;;4957067;28;20009;-78
2022/07/07 05:03:54;;;;;;;;;;;17.50;99.90;;;;;;4956981;29;19922;-78
2022/07/07 05:06:19;;;;;;;;;;;17.70;99.90;;;;;;4957125;29;19917;-78
2022/07/07 05:08:45;;;;;;;;;;;17.70;99.90;;;;;;4956937;28;20283;-76
2022/07/07 05:11:10;;;;;;;;;;;17.80;99.90;;;;;;4957826;28;19917;-79
2022/07/07 05:13:37;;;;;;;;;;;17.70;99.90;;;;;;4956837;28;19910;-79
2022/07/07 05:16:02;;;;;;;;;;;17.70;99.90;;;;;;4956918;29;19921;-77
2022/07/07 05:18:29;;;;;;;;;;;17.80;99.90;;;;;;4956652;28;19910;-77
2022/07/07 05:20:55;;;;;;;;;;;17.90;99.90;;;;;;4956709;28;19911;-78
2022/07/07 05:23:21;;;;;;;;;;;17.90;99.90;;;;;;4955872;28;19957;-78
2022/07/07 05:25:46;;;;;;;;;;;18.10;99.90;;;;;;4956817;29;19933;-78
2022/07/07 05:28:12;;;;;;;;;;;18.30;99.90;;;;;;4956840;29;19994;-78
2022/07/07 05:30:38;;;;;;;;;;;18.40;99.90;;;;;;4956630;28;19918;-77
2022/07/07 05:33:07;;;;;;;;;;;18.50;99.90;;;;;;4956523;28;20386;-77
2022/07/07 05:35:33;;;;;;;;;;;18.60;99.90;;;;;;4956432;28;19929;-78
2022/07/07 05:37:59;;;;;;;;;;;18.60;99.90;;;;;;4956379;28;20391;-78
2022/07/07 05:40:24;;;;;;;;;;;18.60;99.90;;;;;;4956325;28;19939;-78
2022/07/07 05:42:50;;;;;;;;;;;18.70;99.90;;;;;;4956381;28;19910;-79
2022/07/07 05:45:16;;;;;;;;;;;18.80;99.90;;;;;;4956178;28;20268;-76
2022/07/07 05:47:41;;;;;;;;;;;18.90;99.90;;;;;;4956189;29;20005;-78
2022/07/07 05:50:07;;;;;;;;;;;19.00;99.90;;;;;;4956003;28;20379;-79
2022/07/07 05:52:33;;;;;;;;;;;19.10;99.90;;;;;;4956413;29;19917;-77
2022/07/07 05:54:58;;;;;;;;;;;19.00;99.90;;;;;;4956125;28;19918;-78
2022/07/07 05:57:24;;;;;;;;;;;19.10;99.90;;;;;;4956070;29;19910;-77
2022/07/07 05:59:50;;;;;;;;;;;19.20;99.90;;;;;;4956397;28;20413;-78
2022/07/07 06:02:15;;;;;;;;;;;19.30;99.90;;;;;;4956154;29;20352;-78
2022/07/07 06:04:41;;;;;;;;;;;19.20;99.90;;;;;;4955964;28;20390;-77
2022/07/07 06:07:07;;;;;;;;;;;19.40;99.90;;;;;;4955935;29;19911;-78
2022/07/07 06:09:32;;;;;;;;;;;19.50;99.90;;;;;;4956629;29;19914;-77
2022/07/07 06:11:58;;;;;;;;;;;19.50;99.90;;;;;;4955851;29;19911;-77
2022/07/07 06:14:24;;;;;;;;;;;19.60;99.90;;;;;;4955968;28;19958;-79
2022/07/07 06:16:50;;;;;;;;;;;19.80;99.90;;;;;;4955873;29;19949;-77
2022/07/07 06:19:15;;;;;;;;;;;19.80;99.90;;;;;;4955750;29;19953;-78
2022/07/07 06:21:41;;;;;;;;;;;19.80;99.90;;;;;;4956087;29;20016;-78
2022/07/07 06:24:07;;;;;;;;;;;19.70;99.90;;;;;;4955682;29;19922;-78
2022/07/07 06:26:32;;;;;;;;;;;19.90;99.90;;;;;;4955816;29;19914;-78
2022/07/07 06:28:58;;;;;;;;;;;20.00;99.90;;;;;;4955674;29;20406;-78
2022/07/07 06:31:24;;;;;;;;;;;20.00;99.90;;;;;;4955863;29;19910;-78
2022/07/07 06:33:49;;;;;;;;;;;20.10;99.90;;;;;;4955618;29;20067;-78
2022/07/07 06:36:15;;;;;;;;;;;20.00;99.90;;;;;;4955481;28;19958;-78
2022/07/07 06:38:40;;;;;;;;;;;20.30;99.90;;;;;;4955505;29;19914;-79
2022/07/07 06:41:06;;;;;;;;;;;20.30;99.90;;;;;;4955626;29;19943;-77
2022/07/07 06:43:32;;;;;;;;;;;20.10;99.90;;;;;;4955481;29;19915;-78
2022/07/07 06:45:57;;;;;;;;;;;20.30;99.90;;;;;;4955580;29;19910;-78
2022/07/07 06:48:23;;;;;;;;;;;20.40;99.90;;;;;;4955600;29;19954;-79
2022/07/07 06:50:49;;;;;;;;;;;20.40;99.90;;;;;;4955290;28;20451;-78
2022/07/07 06:53:15;;;;;;;;;;;20.60;99.90;;;;;;4955459;29;20015;-79
2022/07/07 06:55:41;;;;;;;;;;;20.70;99.90;;;;;;4955458;28;19936;-78
2022/07/07 06:58:07;;;;;;;;;;;20.70;99.90;;;;;;4955524;29;19918;-78
2022/07/07 07:00:32;;;;;;;;;;;20.70;99.90;;;;;;4955513;29;20287;-77
2022/07/07 07:02:58;;;;;;;;;;;20.90;99.90;;;;;;4955342;29;19918;-77
2022/07/07 07:05:24;;;;;;;;;;;21.00;99.90;;;;;;4955616;29;20367;-78
2022/07/07 07:07:50;;;;;;;;;;;20.90;99.90;;;;;;4955629;29;19918;-79
2022/07/07 07:10:15;;;;;;;;;;;21.20;99.90;;;;;;4955857;29;19917;-79
2022/07/07 07:12:41;;;;;;;;;;;21.30;99.90;;;;;;4955412;29;19914;-80
2022/07/07 07:15:07;;;;;;;;;;;21.60;99.90;;;;;;4955293;28;20375;-78
2022/07/07 07:17:33;;;;;;;;;;;21.90;99.90;;;;;;4955224;29;20013;-77
2022/07/07 07:19:58;;;;;;;;;;;22.20;99.90;;;;;;4955379;28;19911;-78
2022/07/07 07:22:26;;;;;;;;;;;22.30;99.90;;;;;;4955219;28;20005;-78
2022/07/07 07:24:52;;;;;;;;;;;22.40;99.90;;;;;;4955373;28;20403;-78
2022/07/07 07:27:17;;;;;;;;;;;22.30;99.90;;;;;;4955329;28;19910;-77
2022/07/07 07:29:43;;;;;;;;;;;22.30;99.90;;;;;;4955098;28;19910;-77
2022/07/07 07:32:09;;;;;;;;;;;22.40;99.90;;;;;;4955163;29;19918;-78
2022/07/07 07:34:35;;;;;;;;;;;22.30;99.90;;;;;;4955083;28;19910;-78
2022/07/07 07:37:00;;;;;;;;;;;22.20;99.90;;;;;;4955082;29;19910;-78
2022/07/07 07:39:26;;;;;;;;;;;22.20;99.90;;;;;;4955058;28;19911;-77
2022/07/07 07:41:52;;;;;;;;;;;22.50;99.90;;;;;;4955186;28;20394;-79
2022/07/07 07:45:09;;;;;;;;;;;22.80;99.90;;;;;;4954975;28;20268;-78
2022/07/07 07:47:04;;;;;;;;;;;23.30;99.90;;;;;;4955696;28;20131;-79
2022/07/07 07:49:29;;;;;;;;;;;23.60;99.90;;;;;;4958584;29;20287;-79
2022/07/07 07:51:55;;;;;;;;;;;23.80;99.90;;;;;;4958196;29;20013;-76
2022/07/07 07:54:21;;;;;;;;;;;23.90;99.90;;;;;;4958492;29;19911;-77
2022/07/07 07:56:47;;;;;;;;;;;23.90;99.90;;;;;;4958268;29;19917;-79
2022/07/07 07:59:13;;;;;;;;;;;26.70;99.90;;;;;;4958456;28;19972;-80
2022/07/07 08:01:39;;;;;;;;;;;30.80;95.30;;;;;;4958279;28;20379;-80
2022/07/07 08:04:07;;;;;;;;;;;33.00;83.40;;;;;;4958123;28;19914;-79
2022/07/07 08:06:32;;;;;;;;;;;29.90;83.30;;;;;;4957999;29;20286;-79
2022/07/07 08:08:58;;;;;;;;;;;27.10;95.20;;;;;;4958508;29;20010;-80
2022/07/07 08:11:24;;;;;;;;;;;25.80;99.30;;;;;;4958651;29;20282;-77
2022/07/07 08:13:49;;;;;;;;;;;24.90;99.90;;;;;;4957926;28;19917;-79
2022/07/07 08:16:15;;;;;;;;;;;24.20;99.90;;;;;;4957985;29;20426;-79
2022/07/07 08:18:41;;;;;;;;;;;24.00;99.90;;;;;;4958151;28;19961;-79
2022/07/07 08:21:06;;;;;;;;;;;24.00;99.90;;;;;;4958277;29;19918;-79
2022/07/07 08:23:32;;;;;;;;;;;24.20;99.90;;;;;;4957965;29;19922;-80
2022/07/07 08:26:02;;;;;;;;;;;24.80;99.90;;;;;;4957722;28;20390;-77
2022/07/07 08:28:27;;;;;;;;;;;25.00;99.90;;;;;;4957691;29;19911;-78
2022/07/07 08:30:53;;;;;;;;;;;24.90;99.90;;;;;;4957641;29;20384;-79
2022/07/07 08:33:19;;;;;;;;;;;24.80;99.90;;;;;;4957636;29;19910;-79
2022/07/07 08:35:44;;;;;;;;;;;24.80;99.90;;;;;;4957555;29;19954;-78
2022/07/07 08:38:14;;;;;;;;;;;24.70;99.90;;;;;;4957699;28;19917;-78
2022/07/07 08:40:40;;;;;;;;;;;25.10;99.90;;;;;;4957544;28;20372;-79
2022/07/07 08:43:06;;;;;;;;;;;25.20;99.90;;;;;;4957411;29;19911;-79
2022/07/07 08:45:32;;;;;;;;;;;25.20;99.90;;;;;;4957456;28;19922;-77
2022/07/07 08:47:59;;;;;;;;;;;25.10;99.90;;;;;;4957218;28;19911;-78
2022/07/07 08:50:25;;;;;;;;;;;24.90;99.90;;;;;;4957118;28;19950;-78
2022/07/07 08:52:52;;;;;;;;;;;24.70;99.90;;;;;;4957285;29;20338;-79
2022/07/07 08:55:20;;;;;;;;;;;24.80;99.90;;;;;;4957199;28;20276;-78
2022/07/07 08:57:46;;;;;;;;;;;24.70;99.90;;;;;;4956980;28;19910;-77
2022/07/07 09:00:12;;;;;;;;;;;24.50;99.90;;;;;;4956997;28;20005;-77
2022/07/07 09:02:37;;;;;;;;;;;24.80;99.90;;;;;;4957111;29;20010;-79
2022/07/07 09:05:05;;;;;;;;;;;25.30;99.90;;;;;;4957049;29;20361;-79
2022/07/07 09:07:50;;;;;;;;;;;25.40;99.90;;;;;;4957348;28;19917;-79
2022/07/07 09:10:31;;;;;;;;;;;25.30;99.90;;;;;;4940138;29;20343;-78
2022/07/07 09:12:57;;;;;;;;;;;25.40;99.90;;;;;;4956971;28;19910;-78
2022/07/07 09:15:24;;;;;;;;;;;25.50;99.90;;;;;;4956914;28;19921;-78
2022/07/07 09:17:49;;;;;;;;;;;25.60;99.60;;;;;;4956761;28;19910;-78
2022/07/07 09:20:15;;;;;;;;;;;26.50;99.00;;;;;;4956755;28;20438;-78
2022/07/07 09:22:51;;;;;;;;;;;28.20;93.30;;;;;;4956741;29;19914;-77
2022/07/07 09:25:18;;;;;;;;;;;29.00;91.40;;;;;;4956473;29;20260;-78
2022/07/07 09:27:51;;;;;;;;;;;29.10;87.80;;;;;;4939763;29;19922;-78
2022/07/07 09:30:28;;;;;;;;;;;28.30;89.00;;;;;;4956465;28;19964;-79
2022/07/07 09:32:54;;;;;;;;;;;27.60;91.50;;;;;;4956755;28;19917;-79
2022/07/07 09:38:14;;;;;;;;;;;26.90;94.10;;;;;;4956691;29;19965;-78
2022/07/07 09:40:59;;;;;;;;;;;26.80;94.30;;;;;;4956545;29;19911;-79
2022/07/07 09:43:28;;;;;;;;;;;27.10;94.70;;;;;;4956324;28;19973;-79
2022/07/07 09:46:06;;;;;;;;;;;27.60;92.80;;;;;;4956571;28;19910;-79
2022/07/07 09:48:35;;;;;;;;;;;27.60;92.20;;;;;;4956234;29;20455;-79
2022/07/07 09:51:11;;;;;;;;;;;27.20;92.90;;;;;;4955996;28;19984;-77
2022/07/07 09:53:55;;;;;;;;;;;26.60;94.40;;;;;;4956167;29;19942;-78
2022/07/07 09:56:21;;;;;;;;;;;26.60;95.60;;;;;;4956287;29;19910;-78
2022/07/07 09:58:47;;;;;;;;;;;26.90;95.00;;;;;;4956188;29;19911;-80
2022/07/07 10:01:13;;;;;;;;;;;27.30;93.90;;;;;;4956019;28;19910;-79
2022/07/07 10:03:40;;;;;;;;;;;27.00;94.10;;;;;;4956134;29;20379;-78
2022/07/07 10:06:06;;;;;;;;;;;27.60;93.20;;;;;;4955948;29;19915;-78
2022/07/07 10:08:33;;;;;;;;;;;28.10;91.10;;;;;;4955938;28;19919;-78
2022/07/07 10:11:00;;;;;;;;;;;29.60;90.10;;;;;;4956107;28;19911;-78
2022/07/07 10:13:28;;;;;;;;;;;30.70;81.90;;;;;;4955550;29;19911;-79
2022/07/07 10:15:55;;;;;;;;;;;30.40;80.40;;;;;;4955963;28;19917;-78
2022/07/07 10:18:21;;;;;;;;;;;29.80;80.80;;;;;;4955735;29;19910;-80
2022/07/07 10:20:46;;;;;;;;;;;28.80;83.50;;;;;;4956056;28;19953;-80
2022/07/07 10:23:12;;;;;;;;;;;28.00;89.10;;;;;;4955696;28;19961;-79
2022/07/07 10:25:38;;;;;;;;;;;27.50;90.90;;;;;;4955622;28;20005;-79
2022/07/07 10:28:04;;;;;;;;;;;27.30;91.70;;;;;;4955834;28;19949;-80
2022/07/07 10:30:30;;;;;;;;;;;27.20;92.40;;;;;;4955673;28;20392;-80
2022/07/07 10:32:57;;;;;;;;;;;27.30;91.80;;;;;;4955649;28;19911;-79
2022/07/07 10:35:23;;;;;;;;;;;27.30;92.10;;;;;;4955609;28;19914;-78
2022/07/07 10:37:49;;;;;;;;;;;27.60;91.70;;;;;;4956314;28;20009;-79
2022/07/07 10:40:19;;;;;;;;;;;27.70;91.70;;;;;;4956608;28;20001;-79
2022/07/07 10:43:03;;;;;;;;;;;28.00;90.70;;;;;;4957077;29;19942;-78
2022/07/07 10:45:29;;;;;;;;;;;27.90;90.80;;;;;;4957197;29;20253;-79
2022/07/07 10:47:55;;;;;;;;;;;28.30;90.40;;;;;;4957051;28;19911;-79
2022/07/07 10:50:21;;;;;;;;;;;28.50;89.80;;;;;;4956038;28;19926;-78
2022/07/07 10:52:47;;;;;;;;;;;28.20;89.70;;;;;;4955959;29;19946;-78
2022/07/07 10:55:13;;;;;;;;;;;28.50;90.00;;;;;;4955907;29;20005;-77
2022/07/07 10:57:42;;;;;;;;;;;28.40;89.70;;;;;;4955743;29;20005;-79
2022/07/07 11:00:09;;;;;;;;;;;28.20;90.00;;;;;;4955378;29;19910;-78
2022/07/07 11:02:48;;;;;;;;;;;27.90;90.60;;;;;;4955388;29;20367;-79
2022/07/07 11:05:14;;;;;;;;;;;27.80;91.60;;;;;;4955570;29;19937;-80
2022/07/07 11:07:40;;;;;;;;;;;28.30;90.70;;;;;;4955447;29;19911;-79
2022/07/07 11:10:10;;;;;;;;;;;30.00;87.40;;;;;;4956035;29;19962;-80
2022/07/07 11:12:36;;;;;;;;;;;32.10;79.00;;;;;;4955459;29;19917;-79
2022/07/07 11:17:46;;;;;;;;;;;32.00;71.90;;;;;;4955409;28;19946;-80
2022/07/07 11:20:18;;;;;;;;;;;30.70;75.30;;;;;;4955363;29;19911;-79
2022/07/07 11:22:44;;;;;;;;;;;30.00;78.20;;;;;;4957201;28;19911;-79
2022/07/07 11:25:13;;;;;;;;;;;29.40;80.80;;;;;;4959062;29;19969;-78
2022/07/07 11:27:39;;;;;;;;;;;29.90;80.50;;;;;;4959017;29;19911;-78
2022/07/07 11:30:05;;;;;;;;;;;30.70;79.10;;;;;;4958821;29;20367;-78
2022/07/07 11:32:37;;;;;;;;;;;30.70;78.40;;;;;;4958709;28;19910;-79
2022/07/07 11:35:07;;;;;;;;;;;31.80;76.70;;;;;;4958842;28;19915;-79
2022/07/07 11:37:33;;;;;;;;;;;33.00;71.80;;;;;;4958638;29;19915;-80
2022/07/07 11:39:59;;;;;;;;;;;33.60;70.40;;;;;;4958613;29;19914;-80
2022/07/07 11:42:26;;;;;;;;;;;32.80;68.80;;;;;;4958584;28;19910;-79
2022/07/07 11:44:51;;;;;;;;;;;31.80;70.00;;;;;;4958459;28;20013;-80
2022/07/07 11:47:17;;;;;;;;;;;30.20;73.20;;;;;;4958697;29;19942;-80
2022/07/07 11:49:43;;;;;;;;;;;29.50;77.30;;;;;;4958418;28;19947;-79
2022/07/07 11:52:16;;;;;;;;;;;30.00;77.30;;;;;;4957998;28;19922;-79
2022/07/07 11:54:45;;;;;;;;;;;30.60;76.20;;;;;;4958250;28;19919;-80
2022/07/07 11:57:11;;;;;;;;;;;31.70;74.00;;;;;;4958300;29;19997;-80
2022/07/07 11:59:37;;;;;;;;;;;31.70;72.00;;;;;;4958264;28;19942;-78
2022/07/07 12:02:14;;;;;;;;;;;31.80;72.00;;;;;;4958215;29;19914;-78
2022/07/07 12:04:40;;;;;;;;;;;31.30;72.70;;;;;;4958376;29;19914;-79
2022/07/07 12:07:10;;;;;;;;;;;30.80;73.60;;;;;;4958325;28;20023;-79
2022/07/07 12:09:35;;;;;;;;;;;30.30;74.70;;;;;;4958114;29;19917;-79
2022/07/07 12:12:02;;;;;;;;;;;30.10;75.80;;;;;;4958595;28;19910;-79
2022/07/07 12:14:32;;;;;;;;;;;30.40;76.10;;;;;;4957928;28;19917;-79
2022/07/07 12:16:58;;;;;;;;;;;30.20;75.40;;;;;;4957930;29;19918;-79
2022/07/07 12:19:23;;;;;;;;;;;29.90;74.80;;;;;;4957970;29;19911;-79
2022/07/07 12:21:50;;;;;;;;;;;29.50;75.50;;;;;;4957878;29;19910;-79
2022/07/07 12:24:16;;;;;;;;;;;29.40;76.70;;;;;;4957732;29;19918;-78
2022/07/07 12:26:43;;;;;;;;;;;29.50;77.30;;;;;;4957891;29;19921;-78
2022/07/07 12:29:09;;;;;;;;;;;29.30;77.10;;;;;;4957616;29;20034;-78
2022/07/07 12:31:35;;;;;;;;;;;28.60;78.80;;;;;;4957688;28;19949;-78
2022/07/07 12:34:10;;;;;;;;;;;28.40;80.70;;;;;;4957425;28;19961;-79
2022/07/07 12:36:38;;;;;;;;;;;27.80;83.20;;;;;;4940354;29;19910;-79
2022/07/07 12:39:04;;;;;;;;;;;27.40;85.60;;;;;;4957573;28;20410;-79
2022/07/07 12:41:34;;;;;;;;;;;27.50;86.40;;;;;;4957554;28;20264;-79
2022/07/07 12:44:16;;;;;;;;;;;27.80;85.70;;;;;;4957536;29;20016;-78
2022/07/07 12:46:43;;;;;;;;;;;28.30;83.50;;;;;;4957737;28;19914;-77
2022/07/07 12:49:09;;;;;;;;;;;28.70;83.60;;;;;;4957565;28;20276;-80
2022/07/07 12:51:34;;;;;;;;;;;29.40;80.70;;;;;;4957024;28;20399;-78
2022/07/07 12:54:00;;;;;;;;;;;29.20;79.50;;;;;;4957347;29;19949;-78
2022/07/07 12:56:36;;;;;;;;;;;29.10;79.90;;;;;;4957212;29;20414;-79
2022/07/07 12:59:19;;;;;;;;;;;28.60;80.80;;;;;;4957132;28;19910;-79
2022/07/07 13:01:51;;;;;;;;;;;28.60;80.20;;;;;;4957040;28;20442;-79
2022/07/07 13:04:17;;;;;;;;;;;28.70;80.90;;;;;;4957447;28;19921;-79
2022/07/07 13:06:45;;;;;;;;;;;28.80;81.30;;;;;;4956768;29;19914;-79
2022/07/07 13:09:11;;;;;;;;;;;29.00;79.70;;;;;;4956987;29;19911;-79
2022/07/07 13:11:37;;;;;;;;;;;28.60;80.10;;;;;;4957496;29;19918;-77
2022/07/07 13:14:02;;;;;;;;;;;28.30;82.00;;;;;;4956930;29;19914;-80
2022/07/07 13:16:29;;;;;;;;;;;28.80;82.10;;;;;;4956826;28;19910;-79
2022/07/07 13:18:54;;;;;;;;;;;29.40;80.50;;;;;;4956977;29;19911;-78
2022/07/07 13:21:20;;;;;;;;;;;29.70;78.10;;;;;;4956778;29;19965;-80
2022/07/07 13:23:46;;;;;;;;;;;29.30;77.20;;;;;;4956830;29;20288;-79
2022/07/07 13:26:12;;;;;;;;;;;28.70;77.50;;;;;;4956746;29;19911;-78
2022/07/07 13:28:38;;;;;;;;;;;28.40;79.40;;;;;;4957076;29;20001;-77
2022/07/07 13:31:04;;;;;;;;;;;28.80;79.80;;;;;;4956505;29;19910;-78
2022/07/07 13:33:29;;;;;;;;;;;29.00;78.50;;;;;;4956784;29;20037;-79
2022/07/07 13:35:56;;;;;;;;;;;29.20;77.60;;;;;;4956478;29;19910;-79
2022/07/07 13:38:21;;;;;;;;;;;28.60;78.80;;;;;;4956520;29;19917;-78
2022/07/07 13:40:47;;;;;;;;;;;28.80;78.90;;;;;;4956422;29;19911;-77
2022/07/07 13:43:13;;;;;;;;;;;28.20;80.20;;;;;;4956554;28;19941;-79
2022/07/07 13:45:40;;;;;;;;;;;28.10;81.40;;;;;;4955668;28;19965;-79
2022/07/07 13:48:09;;;;;;;;;;;28.30;81.70;;;;;;4956042;28;19961;-79
2022/07/07 13:50:34;;;;;;;;;;;28.30;80.80;;;;;;4956040;29;19923;-79
2022/07/07 13:53:00;;;;;;;;;;;28.10;81.00;;;;;;4956200;29;19966;-78
2022/07/07 13:55:28;;;;;;;;;;;28.20;81.60;;;;;;4956214;29;19950;-78
2022/07/07 13:57:54;;;;;;;;;;;28.70;80.70;;;;;;4956126;29;19924;-78
2022/07/07 14:00:20;;;;;;;;;;;28.80;80.20;;;;;;4956199;29;20039;-78
2022/07/07 14:02:47;;;;;;;;;;;28.90;78.60;;;;;;4956032;28;19918;-79
2022/07/07 14:05:12;;;;;;;;;;;28.90;79.10;;;;;;4956225;29;19914;-78
2022/07/07 14:07:38;;;;;;;;;;;28.80;78.00;;;;;;4956002;29;19917;-80
2022/07/07 14:10:05;;;;;;;;;;;29.00;77.70;;;;;;4956035;29;20256;-79
2022/07/07 14:12:30;;;;;;;;;;;28.80;78.10;;;;;;4956326;29;20331;-79
2022/07/07 14:14:56;;;;;;;;;;;28.70;78.70;;;;;;4955871;29;19910;-78
2022/07/07 14:17:22;;;;;;;;;;;28.70;78.30;;;;;;4956052;28;20297;-80
2022/07/07 14:19:47;;;;;;;;;;;28.40;77.80;;;;;;4955791;29;20037;-78